Time;durP1;ratioP1;P1;durP2;ratioP2;P2;SDS_P1;SDS_P2;PMS_P1;PMS_P2;Temp;Humidity;BMP_temperature;BMP_pressure;BME280_temperature;BME280_humidity;BME280_pressure;Samples;Min_cycle;Max_cycle;Signal;HPM_P1;HPM_P2
2023/05/03 00:01:28;;;;;;;5.68;4.18;;;;;;;;;;5080162;28;20028;-76
2023/05/03 00:03:54;;;;;;;5.72;4.43;;;;;;;;;;5099299;28;20063;-75
2023/05/03 00:06:20;;;;;;;8.30;4.63;;;;;;;;;;5088268;28;20059;-75
2023/05/03 00:08:47;;;;;;;7.38;4.53;;;;;;;;;;5087603;28;20061;-75
2023/05/03 00:11:13;;;;;;;6.55;3.83;;;;;;;;;;5081243;28;20040;-76
2023/05/03 00:13:39;;;;;;;7.30;4.55;;;;;;;;;;5103912;28;20357;-76
2023/05/03 00:16:05;;;;;;;6.35;4.53;;;;;;;;;;5081328;28;20024;-77
2023/05/03 00:18:32;;;;;;;5.38;4.55;;;;;;;;;;5078508;28;20020;-76
2023/05/03 00:20:58;;;;;;;5.30;4.43;;;;;;;;;;5081780;28;20101;-76
2023/05/03 00:23:25;;;;;;;7.63;5.10;;;;;;;;;;5084184;28;20059;-75
2023/05/03 00:25:52;;;;;;;7.35;4.45;;;;;;;;;;5083848;28;20089;-76
2023/05/03 00:28:18;;;;;;;8.02;4.63;;;;;;;;;;5103857;28;20032;-75
2023/05/03 00:30:44;;;;;;;8.68;4.65;;;;;;;;;;5094749;28;20032;-76
2023/05/03 00:33:11;;;;;;;8.85;5.40;;;;;;;;;;5077637;28;20075;-76
2023/05/03 00:35:38;;;;;;;7.18;5.03;;;;;;;;;;5086873;28;20094;-76
2023/05/03 00:38:05;;;;;;;7.85;5.22;;;;;;;;;;5085201;28;20020;-76
2023/05/03 00:40:31;;;;;;;5.90;4.68;;;;;;;;;;5082697;28;20026;-77
2023/05/03 00:42:57;;;;;;;6.70;5.38;;;;;;;;;;5099334;28;20028;-75
2023/05/03 00:45:23;;;;;;;8.45;5.30;;;;;;;;;;5082117;28;20028;-75
2023/05/03 00:47:49;;;;;;;10.45;5.20;;;;;;;;;;5081646;28;20526;-75
2023/05/03 00:50:16;;;;;;;8.93;5.72;;;;;;;;;;5085169;28;20118;-76
2023/05/03 00:52:42;;;;;;;6.57;5.13;;;;;;;;;;5076360;28;20461;-76
2023/05/03 00:55:09;;;;;;;6.93;5.50;;;;;;;;;;5082118;28;20115;-77
2023/05/03 00:57:35;;;;;;;6.82;5.45;;;;;;;;;;5077793;28;20377;-75
2023/05/03 01:00:02;;;;;;;8.95;5.18;;;;;;;;;;5085381;28;20047;-78
2023/05/03 01:02:29;;;;;;;8.18;6.07;;;;;;;;;;5089583;28;20519;-75
2023/05/03 01:04:55;;;;;;;7.93;5.10;;;;;;;;;;5079548;28;20428;-76
2023/05/03 01:07:45;;;;;;;8.32;5.28;;;;;;;;;;5077998;28;20028;-76
2023/05/03 01:10:21;;;;;;;7.65;5.00;;;;;;;;;;5071574;28;20590;-76
2023/05/03 01:12:55;;;;;;;6.75;5.07;;;;;;;;;;5092478;28;20555;-76
2023/05/03 01:15:30;;;;;;;9.10;5.43;;;;;;;;;;5084700;28;20110;-76
2023/05/03 01:18:03;;;;;;;10.80;5.80;;;;;;;;;;5085209;28;20107;-76
2023/05/03 01:20:30;;;;;;;8.35;5.57;;;;;;;;;;5084060;28;20024;-76
2023/05/03 01:23:04;;;;;;;9.35;5.93;;;;;;;;;;5097925;28;20111;-77
2023/05/03 01:25:30;;;;;;;8.57;5.22;;;;;;;;;;5077720;28;20044;-76
2023/05/03 01:27:56;;;;;;;6.95;5.70;;;;;;;;;;5104622;28;20051;-76
2023/05/03 01:30:25;;;;;;;7.25;5.32;;;;;;;;;;5082180;28;20033;-76
2023/05/03 01:32:57;;;;;;;8.82;5.93;;;;;;;;;;5090096;28;20048;-76
2023/05/03 01:35:29;;;;;;;8.88;5.57;;;;;;;;;;5083926;28;20016;-77
2023/05/03 01:37:57;;;;;;;7.53;5.60;;;;;;;;;;5096895;28;20472;-76
2023/05/03 01:40:24;;;;;;;8.27;5.88;;;;;;;;;;5090004;28;20551;-76
2023/05/03 01:42:51;;;;;;;8.35;6.22;;;;;;;;;;5081944;28;20031;-76
2023/05/03 01:45:18;;;;;;;8.27;5.43;;;;;;;;;;5088000;28;20036;-75
2023/05/03 01:47:44;;;;;;;8.43;5.55;;;;;;;;;;5082153;28;20032;-76
2023/05/03 01:50:10;;;;;;;7.82;5.93;;;;;;;;;;5083836;28;20081;-75
2023/05/03 01:52:36;;;;;;;9.60;6.00;;;;;;;;;;5080847;28;20289;-76
2023/05/03 01:55:02;;;;;;;7.75;5.90;;;;;;;;;;5087336;28;20040;-76
2023/05/03 01:57:29;;;;;;;11.18;6.55;;;;;;;;;;5082060;28;20027;-76
2023/05/03 01:59:55;;;;;;;12.50;6.38;;;;;;;;;;5076426;28;20496;-75
2023/05/03 02:02:21;;;;;;;6.90;5.55;;;;;;;;;;5092919;28;20540;-78
2023/05/03 02:04:47;;;;;;;8.52;6.30;;;;;;;;;;5087972;28;20088;-76
2023/05/03 02:07:13;;;;;;;8.77;6.65;;;;;;;;;;5085827;28;20127;-76
2023/05/03 02:09:40;;;;;;;11.02;6.72;;;;;;;;;;5095734;28;20039;-76
2023/05/03 02:12:06;;;;;;;7.88;5.53;;;;;;;;;;5083506;28;20020;-75
2023/05/03 02:14:32;;;;;;;9.27;6.88;;;;;;;;;;5084873;28;20034;-76
2023/05/03 02:16:59;;;;;;;8.68;6.43;;;;;;;;;;5101441;28;20020;-75
2023/05/03 02:19:25;;;;;;;7.97;5.80;;;;;;;;;;5085800;28;20558;-77
2023/05/03 02:21:52;;;;;;;7.65;5.53;;;;;;;;;;5087707;28;20059;-77
2023/05/03 02:24:18;;;;;;;10.48;6.65;;;;;;;;;;5086010;28;20032;-76
2023/05/03 02:26:45;;;;;;;8.52;5.75;;;;;;;;;;5078360;28;20020;-77
2023/05/03 02:29:11;;;;;;;7.47;5.63;;;;;;;;;;5079596;28;20052;-76
2023/05/03 02:31:37;;;;;;;11.32;6.82;;;;;;;;;;5098240;28;20492;-77
2023/05/03 02:34:03;;;;;;;11.55;7.28;;;;;;;;;;5085097;28;20095;-75
2023/05/03 02:36:29;;;;;;;9.27;5.97;;;;;;;;;;5086359;28;20032;-76
2023/05/03 02:38:56;;;;;;;7.30;5.55;;;;;;;;;;5081667;28;20024;-76
2023/05/03 02:41:22;;;;;;;8.75;5.65;;;;;;;;;;5102062;28;20040;-77
2023/05/03 02:43:48;;;;;;;7.15;6.18;;;;;;;;;;5074951;28;20082;-76
2023/05/03 02:46:14;;;;;;;9.00;5.72;;;;;;;;;;5074277;28;20165;-77
2023/05/03 02:48:40;;;;;;;8.13;5.90;;;;;;;;;;5076182;28;20438;-76
2023/05/03 02:51:06;;;;;;;9.80;6.53;;;;;;;;;;5083018;28;20321;-76
2023/05/03 02:53:32;;;;;;;8.65;6.45;;;;;;;;;;5079852;28;20097;-76
2023/05/03 02:55:58;;;;;;;8.13;5.75;;;;;;;;;;5079806;28;20067;-76
2023/05/03 02:58:25;;;;;;;8.80;6.15;;;;;;;;;;5103945;28;20403;-76
2023/05/03 03:00:51;;;;;;;6.68;5.68;;;;;;;;;;5085440;28;20107;-76
2023/05/03 03:03:20;;;;;;;7.07;6.00;;;;;;;;;;5074729;28;20500;-76
2023/05/03 03:05:49;;;;;;;7.15;5.70;;;;;;;;;;5085345;28;20028;-78
2023/05/03 03:08:15;;;;;;;6.47;5.43;;;;;;;;;;5094481;28;20115;-76
2023/05/03 03:10:41;;;;;;;9.77;5.97;;;;;;;;;;5083217;28;20030;-76
2023/05/03 03:13:07;;;;;;;9.60;5.88;;;;;;;;;;5081697;28;20036;-75
2023/05/03 03:15:33;;;;;;;6.68;5.40;;;;;;;;;;5103328;28;20024;-76
2023/05/03 03:17:59;;;;;;;7.28;5.63;;;;;;;;;;5100606;28;20043;-77
2023/05/03 03:20:25;;;;;;;6.78;5.68;;;;;;;;;;5100704;28;20061;-76
2023/05/03 03:22:51;;;;;;;7.95;5.85;;;;;;;;;;5083744;28;20021;-77
2023/05/03 03:25:18;;;;;;;6.38;5.57;;;;;;;;;;5080867;28;20028;-77
2023/05/03 03:27:44;;;;;;;7.05;5.57;;;;;;;;;;5084376;28;20024;-76
2023/05/03 03:30:10;;;;;;;13.68;6.35;;;;;;;;;;5087598;28;20361;-76
2023/05/03 03:32:36;;;;;;;10.35;6.80;;;;;;;;;;5087200;28;20102;-76
2023/05/03 03:35:03;;;;;;;9.70;5.90;;;;;;;;;;5084255;28;20472;-76
2023/05/03 03:37:29;;;;;;;10.50;6.03;;;;;;;;;;5077156;28;20032;-76
2023/05/03 03:39:55;;;;;;;12.32;6.78;;;;;;;;;;5081079;28;20092;-77
2023/05/03 03:42:22;;;;;;;9.02;6.57;;;;;;;;;;5085390;28;20044;-77
2023/05/03 03:44:49;;;;;;;8.02;5.22;;;;;;;;;;5079231;28;20528;-77
2023/05/03 03:47:15;;;;;;;9.02;6.43;;;;;;;;;;5095867;28;20086;-78
2023/05/03 03:49:41;;;;;;;7.28;5.72;;;;;;;;;;5087742;28;20031;-76
2023/05/03 03:52:07;;;;;;;9.73;6.00;;;;;;;;;;5092430;28;20039;-76
2023/05/03 03:54:34;;;;;;;8.43;5.95;;;;;;;;;;5088422;28;20028;-76
2023/05/03 03:57:03;;;;;;;8.02;5.85;;;;;;;;;;5084118;28;20489;-77
2023/05/03 03:59:30;;;;;;;8.95;5.70;;;;;;;;;;5085627;28;20569;-77
2023/05/03 04:01:56;;;;;;;8.10;5.72;;;;;;;;;;5084287;28;20021;-76
2023/05/03 04:04:22;;;;;;;9.38;5.38;;;;;;;;;;5080456;28;20052;-77
2023/05/03 04:06:48;;;;;;;7.95;5.72;;;;;;;;;;5087865;28;20032;-76
2023/05/03 04:09:16;;;;;;;8.00;4.80;;;;;;;;;;5080828;28;20036;-77
2023/05/03 04:11:42;;;;;;;6.82;4.90;;;;;;;;;;5085448;28;20561;-76
2023/05/03 04:14:08;;;;;;;7.05;4.75;;;;;;;;;;5100783;28;20024;-76
2023/05/03 04:16:34;;;;;;;7.45;5.70;;;;;;;;;;5103334;28;20473;-78
2023/05/03 04:19:01;;;;;;;8.70;4.50;;;;;;;;;;5089144;28;20028;-77
2023/05/03 04:21:27;;;;;;;7.43;5.68;;;;;;;;;;5083524;28;20159;-77
2023/05/03 04:23:54;;;;;;;10.98;5.13;;;;;;;;;;5084540;28;20381;-76
2023/05/03 04:26:21;;;;;;;7.35;5.13;;;;;;;;;;5091340;28;20537;-76
2023/05/03 04:28:50;;;;;;;8.50;4.90;;;;;;;;;;5074476;28;20024;-75
2023/05/03 04:31:17;;;;;;;4.80;4.30;;;;;;;;;;5094827;28;20582;-75
2023/05/03 04:33:43;;;;;;;6.18;4.60;;;;;;;;;;5082185;28;20472;-76
2023/05/03 04:36:09;;;;;;;7.38;4.05;;;;;;;;;;5083759;28;20035;-77
2023/05/03 04:38:35;;;;;;;6.32;4.32;;;;;;;;;;5086416;28;20540;-76
2023/05/03 04:41:02;;;;;;;8.45;5.45;;;;;;;;;;5095188;28;20468;-80
2023/05/03 04:43:28;;;;;;;6.53;4.40;;;;;;;;;;5075644;28;21236;-76
2023/05/03 04:45:54;;;;;;;8.98;6.60;;;;;;;;;;5085290;28;20107;-76
2023/05/03 04:48:20;;;;;;;6.72;4.60;;;;;;;;;;5087228;28;20689;-76
2023/05/03 04:50:46;;;;;;;7.25;4.80;;;;;;;;;;5079311;28;20033;-76
2023/05/03 04:53:13;;;;;;;6.75;5.07;;;;;;;;;;5087850;28;20020;-76
2023/05/03 04:55:39;;;;;;;7.78;4.80;;;;;;;;;;5081774;28;20025;-76
2023/05/03 04:58:06;;;;;;;7.50;4.80;;;;;;;;;;5084970;28;21012;-76
2023/05/03 05:00:32;;;;;;;7.35;4.43;;;;;;;;;;5081736;28;20016;-77
2023/05/03 05:02:59;;;;;;;5.70;4.88;;;;;;;;;;5088550;28;20032;-76
2023/05/03 05:05:26;;;;;;;7.15;4.20;;;;;;;;;;5080673;28;20397;-77
2023/05/03 05:07:52;;;;;;;7.38;4.63;;;;;;;;;;5084538;28;20024;-77
2023/05/03 05:10:18;;;;;;;7.75;4.40;;;;;;;;;;5084654;28;20025;-77
2023/05/03 05:12:44;;;;;;;8.05;5.22;;;;;;;;;;5088125;28;20437;-77
2023/05/03 05:15:10;;;;;;;11.20;4.80;;;;;;;;;;5087292;28;20028;-79
2023/05/03 05:17:36;;;;;;;6.90;4.65;;;;;;;;;;5084935;28;20401;-78
2023/05/03 05:20:06;;;;;;;5.95;4.50;;;;;;;;;;5097803;28;20028;-76
2023/05/03 05:22:32;;;;;;;5.13;4.35;;;;;;;;;;5088222;28;20020;-76
2023/05/03 05:24:58;;;;;;;7.00;5.18;;;;;;;;;;5083181;28;20036;-76
2023/05/03 05:27:24;;;;;;;7.15;4.80;;;;;;;;;;5086717;28;20032;-76
2023/05/03 05:29:50;;;;;;;6.50;5.20;;;;;;;;;;5084423;28;20024;-76
2023/05/03 05:32:17;;;;;;;6.53;4.80;;;;;;;;;;5099394;28;20076;-76
2023/05/03 05:34:47;;;;;;;7.13;4.85;;;;;;;;;;5081069;28;20101;-75
2023/05/03 05:37:14;;;;;;;6.03;4.85;;;;;;;;;;5086205;28;20024;-76
2023/05/03 05:39:40;;;;;;;10.23;5.47;;;;;;;;;;5095493;28;20067;-76
2023/05/03 05:42:06;;;;;;;6.38;5.03;;;;;;;;;;5096548;28;20020;-76
2023/05/03 05:44:32;;;;;;;7.82;5.78;;;;;;;;;;5093929;28;20545;-76
2023/05/03 05:46:58;;;;;;;6.43;5.25;;;;;;;;;;5092519;28;20028;-76
2023/05/03 05:49:24;;;;;;;8.98;5.32;;;;;;;;;;5081905;28;20029;-76
2023/05/03 05:51:50;;;;;;;6.95;5.35;;;;;;;;;;5073564;28;20029;-76
2023/05/03 05:54:16;;;;;;;10.25;4.97;;;;;;;;;;5076825;28;20020;-76
2023/05/03 05:56:42;;;;;;;9.60;4.88;;;;;;;;;;5084921;28;20016;-77
2023/05/03 05:59:09;;;;;;;7.68;5.20;;;;;;;;;;5084020;28;20388;-76
2023/05/03 06:01:35;;;;;;;9.48;5.40;;;;;;;;;;5097005;28;20024;-77
2023/05/03 06:04:01;;;;;;;8.57;5.50;;;;;;;;;;5087924;28;20032;-76
2023/05/03 06:06:27;;;;;;;7.70;4.70;;;;;;;;;;5079029;28;20028;-77
2023/05/03 06:08:54;;;;;;;7.57;4.60;;;;;;;;;;5088000;28;20033;-75
2023/05/03 06:11:20;;;;;;;7.68;5.43;;;;;;;;;;5080426;28;20020;-76
2023/05/03 06:13:46;;;;;;;8.32;4.85;;;;;;;;;;5078146;28;20028;-76
2023/05/03 06:16:12;;;;;;;7.05;4.93;;;;;;;;;;5077864;28;20032;-75
2023/05/03 06:18:38;;;;;;;5.68;5.10;;;;;;;;;;5075305;28;20146;-76
2023/05/03 06:21:04;;;;;;;6.00;4.57;;;;;;;;;;5082569;28;20385;-76
2023/05/03 06:23:32;;;;;;;7.82;4.72;;;;;;;;;;5075358;28;20039;-76
2023/05/03 06:25:58;;;;;;;7.50;5.43;;;;;;;;;;5090234;28;20099;-77
2023/05/03 06:28:24;;;;;;;6.90;4.72;;;;;;;;;;5077969;28;20497;-76
2023/05/03 06:30:51;;;;;;;6.47;4.93;;;;;;;;;;5078725;28;20039;-77
2023/05/03 06:33:17;;;;;;;8.40;4.57;;;;;;;;;;5078639;28;20086;-75
2023/05/03 06:35:46;;;;;;;6.28;5.28;;;;;;;;;;5080654;28;20753;-76
2023/05/03 06:38:12;;;;;;;6.03;4.65;;;;;;;;;;5074876;28;20070;-78
2023/05/03 06:40:40;;;;;;;7.32;4.68;;;;;;;;;;5082456;28;20047;-76
2023/05/03 06:43:06;;;;;;;6.22;4.40;;;;;;;;;;5078618;28;20035;-77
2023/05/03 06:45:32;;;;;;;7.75;4.70;;;;;;;;;;5087472;28;20225;-76
2023/05/03 06:47:59;;;;;;;6.00;4.60;;;;;;;;;;5072593;28;20598;-77
2023/05/03 06:50:26;;;;;;;9.82;4.18;;;;;;;;;;5101980;27;20034;-77
2023/05/03 06:52:52;;;;;;;8.80;5.72;;;;;;;;;;5095823;28;20071;-77
2023/05/03 06:55:19;;;;;;;6.90;4.65;;;;;;;;;;5078743;28;20102;-75
2023/05/03 06:57:51;;;;;;;6.90;4.50;;;;;;;;;;5081972;28;20024;-74
2023/05/03 07:00:17;;;;;;;7.25;4.60;;;;;;;;;;5081548;28;20023;-75
2023/05/03 07:02:43;;;;;;;5.22;4.35;;;;;;;;;;5080847;28;20029;-77
2023/05/03 07:05:10;;;;;;;6.35;4.35;;;;;;;;;;5079832;28;20028;-87
2023/05/03 07:07:36;;;;;;;7.22;4.50;;;;;;;;;;5072847;28;20028;-76
2023/05/03 07:10:03;;;;;;;7.28;5.03;;;;;;;;;;5080961;28;20039;-75
2023/05/03 07:12:29;;;;;;;6.25;4.50;;;;;;;;;;5104115;28;20032;-76
2023/05/03 07:14:55;;;;;;;7.00;4.20;;;;;;;;;;5083993;28;20028;-76
2023/05/03 07:17:21;;;;;;;5.53;4.70;;;;;;;;;;5076013;28;20027;-77
2023/05/03 07:19:48;;;;;;;8.98;4.60;;;;;;;;;;5102812;28;20040;-76
2023/05/03 07:22:15;;;;;;;6.20;4.75;;;;;;;;;;5085520;28;20031;-78
2023/05/03 07:24:41;;;;;;;7.80;4.70;;;;;;;;;;5074165;28;20046;-76
2023/05/03 07:27:07;;;;;;;4.75;4.00;;;;;;;;;;5087549;28;20036;-76
2023/05/03 07:29:33;;;;;;;5.80;4.25;;;;;;;;;;5089130;28;20027;-76
2023/05/03 07:32:00;;;;;;;10.35;4.47;;;;;;;;;;5088434;28;20047;-76
2023/05/03 07:34:26;;;;;;;6.75;4.80;;;;;;;;;;5079139;28;20124;-77
2023/05/03 07:36:53;;;;;;;9.48;4.60;;;;;;;;;;5073055;28;20098;-76
2023/05/03 07:39:19;;;;;;;5.28;4.45;;;;;;;;;;5084335;28;20020;-76
2023/05/03 07:41:45;;;;;;;7.07;4.68;;;;;;;;;;5079255;28;20025;-76
2023/05/03 07:44:11;;;;;;;5.20;3.83;;;;;;;;;;5081026;28;20024;-76
2023/05/03 07:46:38;;;;;;;8.13;4.28;;;;;;;;;;5086307;28;20027;-76
2023/05/03 07:49:05;;;;;;;4.97;4.10;;;;;;;;;;5088396;28;20035;-76
2023/05/03 07:51:38;;;;;;;7.18;4.13;;;;;;;;;;5082340;28;20100;-76
2023/05/03 07:54:04;;;;;;;6.05;4.82;;;;;;;;;;5100764;28;20093;-76
2023/05/03 07:56:30;;;;;;;7.00;3.80;;;;;;;;;;5082429;28;20560;-76
2023/05/03 07:58:57;;;;;;;7.32;4.72;;;;;;;;;;5078568;28;20037;-77
2023/05/03 08:01:23;;;;;;;6.05;4.95;;;;;;;;;;5082419;28;20107;-77
2023/05/03 08:03:50;;;;;;;10.65;4.68;;;;;;;;;;5085590;28;20037;-76
2023/05/03 08:06:16;;;;;;;4.80;3.97;;;;;;;;;;5077359;28;20472;-76
2023/05/03 08:08:42;;;;;;;4.32;3.88;;;;;;;;;;5081890;28;20575;-76
2023/05/03 08:11:09;;;;;;;5.78;4.43;;;;;;;;;;5092789;28;20511;-76
2023/05/03 08:13:36;;;;;;;7.63;4.75;;;;;;;;;;5091976;28;20031;-76
2023/05/03 08:16:02;;;;;;;7.00;4.45;;;;;;;;;;5082093;28;20027;-77
2023/05/03 08:18:28;;;;;;;5.15;4.40;;;;;;;;;;5096204;28;20020;-76
2023/05/03 08:20:54;;;;;;;7.63;4.50;;;;;;;;;;5099315;28;20469;-76
2023/05/03 08:23:22;;;;;;;7.28;4.85;;;;;;;;;;5083380;28;20030;-76
2023/05/03 08:25:48;;;;;;;5.70;4.28;;;;;;;;;;5075722;28;20024;-76
2023/05/03 08:28:14;;;;;;;6.35;5.00;;;;;;;;;;5075253;28;20511;-76
2023/05/03 08:30:40;;;;;;;6.90;4.90;;;;;;;;;;5071557;28;20020;-76
2023/05/03 08:33:08;;;;;;;6.72;4.40;;;;;;;;;;5072936;28;20052;-77
2023/05/03 08:35:35;;;;;;;6.22;4.30;;;;;;;;;;5087378;28;20043;-75
2023/05/03 08:38:01;;;;;;;6.38;4.43;;;;;;;;;;5081892;28;20028;-76
2023/05/03 08:40:27;;;;;;;5.95;4.70;;;;;;;;;;5099666;28;20504;-77
2023/05/03 08:42:55;;;;;;;5.60;4.30;;;;;;;;;;5087454;28;20028;-74
2023/05/03 08:45:22;;;;;;;6.40;4.40;;;;;;;;;;5091155;28;20028;-77
2023/05/03 08:47:53;;;;;;;6.78;4.40;;;;;;;;;;5081490;28;20107;-76
2023/05/03 08:50:19;;;;;;;5.50;4.75;;;;;;;;;;5088743;28;20073;-76
2023/05/03 08:52:45;;;;;;;6.00;4.05;;;;;;;;;;5095540;28;20016;-76
2023/05/03 08:55:12;;;;;;;7.10;5.13;;;;;;;;;;5087882;28;20067;-76
2023/05/03 08:57:38;;;;;;;6.68;4.38;;;;;;;;;;5105092;28;20127;-76
2023/05/03 09:00:09;;;;;;;11.73;4.80;;;;;;;;;;5080375;28;20021;-77
2023/05/03 09:02:37;;;;;;;5.68;4.05;;;;;;;;;;5075296;28;20056;-76
2023/05/03 09:05:04;;;;;;;6.20;4.63;;;;;;;;;;5086240;28;20469;-77
2023/05/03 09:07:30;;;;;;;7.95;4.72;;;;;;;;;;5087302;28;20070;-77
2023/05/03 09:09:59;;;;;;;7.22;4.80;;;;;;;;;;5077797;28;20085;-76
2023/05/03 09:12:40;;;;;;;7.25;4.45;;;;;;;;;;5093536;28;20025;-76
2023/05/03 09:15:06;;;;;;;5.50;4.50;;;;;;;;;;5079914;28;20024;-76
2023/05/03 09:17:32;;;;;;;7.68;4.97;;;;;;;;;;5095615;28;20024;-78
2023/05/03 09:19:59;;;;;;;9.80;5.07;;;;;;;;;;5074246;28;20024;-76
2023/05/03 09:22:32;;;;;;;5.47;4.45;;;;;;;;;;5082418;28;20024;-77
2023/05/03 09:24:59;;;;;;;7.22;4.57;;;;;;;;;;5080560;28;20043;-77
2023/05/03 09:27:26;;;;;;;8.98;4.88;;;;;;;;;;5080697;28;20051;-76
2023/05/03 09:29:52;;;;;;;12.55;5.20;;;;;;;;;;5083495;28;20389;-76
2023/05/03 09:32:20;;;;;;;9.77;4.90;;;;;;;;;;5097083;28;20390;-76
2023/05/03 09:34:46;;;;;;;5.28;4.18;;;;;;;;;;5098291;28;20039;-76
2023/05/03 09:37:13;;;;;;;8.02;4.53;;;;;;;;;;5098566;28;20055;-76
2023/05/03 09:39:44;;;;;;;10.90;4.72;;;;;;;;;;5082402;28;20085;-76
2023/05/03 09:42:15;;;;;;;5.78;4.50;;;;;;;;;;5078912;28;20027;-76
2023/05/03 09:44:42;;;;;;;6.75;3.80;;;;;;;;;;5081858;28;20063;-76
2023/05/03 09:47:08;;;;;;;6.80;3.83;;;;;;;;;;5078788;28;20053;-76
2023/05/03 09:49:35;;;;;;;7.28;4.55;;;;;;;;;;5098905;28;20039;-76
2023/05/03 09:52:02;;;;;;;7.57;4.38;;;;;;;;;;5084792;28;20038;-76
2023/05/03 09:54:34;;;;;;;7.47;4.13;;;;;;;;;;5096573;28;20033;-76
2023/05/03 09:57:01;;;;;;;5.88;4.65;;;;;;;;;;5085543;28;20020;-76
2023/05/03 09:59:27;;;;;;;5.35;4.00;;;;;;;;;;5084303;28;20491;-76
2023/05/03 10:01:57;;;;;;;7.88;4.25;;;;;;;;;;5073214;28;20135;-76
2023/05/03 10:04:26;;;;;;;6.95;4.10;;;;;;;;;;5086311;28;20134;-76
2023/05/03 10:06:53;;;;;;;4.50;4.10;;;;;;;;;;5083334;28;20093;-77
2023/05/03 10:09:19;;;;;;;6.55;3.70;;;;;;;;;;5084605;28;20036;-76
2023/05/03 10:11:50;;;;;;;6.13;3.80;;;;;;;;;;5086252;28;20051;-77
2023/05/03 10:14:16;;;;;;;7.10;4.28;;;;;;;;;;5075059;28;20436;-77
2023/05/03 10:16:45;;;;;;;7.65;4.28;;;;;;;;;;5082703;28;20029;-77
2023/05/03 10:19:24;;;;;;;5.88;4.85;;;;;;;;;;5083991;28;20023;-77
2023/05/03 10:22:07;;;;;;;9.13;4.65;;;;;;;;;;5072451;28;20020;-76
2023/05/03 10:24:34;;;;;;;6.35;5.07;;;;;;;;;;5096217;28;20028;-76
2023/05/03 10:27:00;;;;;;;10.07;4.63;;;;;;;;;;5083931;28;20028;-76
2023/05/03 10:29:47;;;;;;;4.82;4.10;;;;;;;;;;5097633;28;20032;-77
2023/05/03 10:32:29;;;;;;;5.25;3.83;;;;;;;;;;5077210;28;20085;-77
2023/05/03 10:34:57;;;;;;;7.82;5.68;;;;;;;;;;5090895;28;20035;-76
2023/05/03 10:37:25;;;;;;;5.18;4.00;;;;;;;;;;5078246;28;20021;-77
2023/05/03 10:39:52;;;;;;;5.93;3.50;;;;;;;;;;5092769;28;20043;-77
2023/05/03 10:42:21;;;;;;;7.30;4.40;;;;;;;;;;5081080;28;20035;-76
2023/05/03 10:44:51;;;;;;;5.60;4.63;;;;;;;;;;5075883;28;20505;-77
2023/05/03 10:47:18;;;;;;;8.60;4.70;;;;;;;;;;5079886;28;20039;-78
2023/05/03 10:49:45;;;;;;;7.97;4.28;;;;;;;;;;5078529;28;20032;-77
2023/05/03 10:52:29;;;;;;;8.52;4.80;;;;;;;;;;5084755;28;20032;-76
2023/05/03 10:54:57;;;;;;;6.70;4.20;;;;;;;;;;5098926;28;20080;-92
2023/05/03 10:57:26;;;;;;;7.70;4.10;;;;;;;;;;5097939;28;20024;-78
2023/05/03 10:59:53;;;;;;;6.95;4.60;;;;;;;;;;5082543;28;20028;-78
2023/05/03 11:02:22;;;;;;;6.80;4.32;;;;;;;;;;5092697;28;20503;-77
2023/05/03 11:04:50;;;;;;;8.75;4.50;;;;;;;;;;5094198;28;20032;-78
2023/05/03 11:07:23;;;;;;;7.88;5.13;;;;;;;;;;5096169;28;20118;-77
2023/05/03 11:09:49;;;;;;;6.47;4.75;;;;;;;;;;5075196;28;20097;-77
2023/05/03 11:12:16;;;;;;;5.18;4.45;;;;;;;;;;5093438;28;20072;-78
2023/05/03 11:14:42;;;;;;;8.05;5.15;;;;;;;;;;5097178;28;20045;-78
2023/05/03 11:17:08;;;;;;;10.60;5.13;;;;;;;;;;5084463;28;20492;-77
2023/05/03 11:19:34;;;;;;;11.20;5.38;;;;;;;;;;5085386;28;20032;-75
2023/05/03 11:22:01;;;;;;;10.40;5.47;;;;;;;;;;5080296;28;20043;-76
2023/05/03 11:24:27;;;;;;;10.35;5.38;;;;;;;;;;5086379;28;20082;-77
2023/05/03 11:26:53;;;;;;;7.22;5.40;;;;;;;;;;5095017;28;20024;-76
2023/05/03 11:29:20;;;;;;;9.02;5.50;;;;;;;;;;5085416;28;20089;-76
2023/05/03 11:31:47;;;;;;;11.63;5.95;;;;;;;;;;5075362;28;20048;-74
2023/05/03 11:34:14;;;;;;;5.10;4.40;;;;;;;;;;5082692;28;20036;-76
2023/05/03 11:36:41;;;;;;;9.27;5.95;;;;;;;;;;5078279;28;20024;-75
2023/05/03 11:39:08;;;;;;;19.75;6.13;;;;;;;;;;5099867;28;20020;-77
2023/05/03 11:41:34;;;;;;;11.02;5.68;;;;;;;;;;5096331;28;20063;-75
2023/05/03 11:44:01;;;;;;;9.65;4.95;;;;;;;;;;5078022;28;20711;-76
2023/05/03 11:46:28;;;;;;;11.13;5.50;;;;;;;;;;5078091;28;20481;-77
2023/05/03 11:48:54;;;;;;;8.77;5.07;;;;;;;;;;5087453;28;20443;-76
2023/05/03 11:51:22;;;;;;;8.63;4.97;;;;;;;;;;5087085;28;20457;-76
2023/05/03 11:53:48;;;;;;;10.57;5.32;;;;;;;;;;5084431;28;20106;-75
2023/05/03 11:56:17;;;;;;;7.10;4.75;;;;;;;;;;5080657;28;20024;-77
2023/05/03 11:58:56;;;;;;;9.75;4.78;;;;;;;;;;5079941;28;20024;-76
2023/05/03 12:01:26;;;;;;;8.02;4.85;;;;;;;;;;5079620;28;20026;-76
2023/05/03 12:03:56;;;;;;;11.18;5.38;;;;;;;;;;5081208;28;20104;-77
2023/05/03 12:06:22;;;;;;;7.20;4.43;;;;;;;;;;5095112;28;20028;-77
2023/05/03 12:08:48;;;;;;;9.43;4.88;;;;;;;;;;5078789;28;20028;-76
2023/05/03 12:11:15;;;;;;;6.10;4.50;;;;;;;;;;5077087;28;20028;-77
2023/05/03 12:13:41;;;;;;;8.32;4.80;;;;;;;;;;5098068;28;20174;-75
2023/05/03 12:16:08;;;;;;;6.93;4.68;;;;;;;;;;5083190;28;20024;-77
2023/05/03 12:18:48;;;;;;;6.60;4.63;;;;;;;;;;5086574;28;20091;-75
2023/05/03 12:21:14;;;;;;;5.15;4.65;;;;;;;;;;5093939;28;20425;-76
2023/05/03 12:23:41;;;;;;;9.38;4.38;;;;;;;;;;5081777;28;20590;-76
2023/05/03 12:26:07;;;;;;;6.40;4.57;;;;;;;;;;5070470;28;20119;-75
2023/05/03 12:28:33;;;;;;;6.57;4.78;;;;;;;;;;5074947;28;20020;-76
2023/05/03 12:31:00;;;;;;;4.57;3.65;;;;;;;;;;5083207;28;20484;-74
2023/05/03 12:33:26;;;;;;;5.68;4.05;;;;;;;;;;5090011;28;20058;-75
2023/05/03 12:35:52;;;;;;;22.70;4.93;;;;;;;;;;5082852;28;20028;-76
2023/05/03 12:38:18;;;;;;;6.13;4.18;;;;;;;;;;5075806;28;20496;-76
2023/05/03 12:40:45;;;;;;;8.75;4.90;;;;;;;;;;5078765;28;20036;-75
2023/05/03 12:43:11;;;;;;;8.30;4.53;;;;;;;;;;5091350;28;20031;-74
2023/05/03 12:45:38;;;;;;;7.80;4.90;;;;;;;;;;5072186;28;20601;-76
2023/05/03 12:48:04;;;;;;;9.85;5.45;;;;;;;;;;5091366;28;20031;-76
2023/05/03 12:50:30;;;;;;;5.95;4.75;;;;;;;;;;5080504;28;20032;-76
2023/05/03 12:52:56;;;;;;;7.60;5.25;;;;;;;;;;5084617;28;20039;-79
2023/05/03 12:55:23;;;;;;;10.13;4.50;;;;;;;;;;5093736;28;20043;-76
2023/05/03 12:57:49;;;;;;;10.52;5.25;;;;;;;;;;5086788;28;20039;-79
2023/05/03 13:00:16;;;;;;;7.18;4.78;;;;;;;;;;5073785;28;20031;-76
2023/05/03 13:02:42;;;;;;;8.32;4.55;;;;;;;;;;5080226;28;20515;-79
2023/05/03 13:05:09;;;;;;;8.95;4.93;;;;;;;;;;5072174;28;20031;-76
2023/05/03 13:07:35;;;;;;;9.07;4.97;;;;;;;;;;5097249;28;20480;-76
2023/05/03 13:10:01;;;;;;;8.23;4.45;;;;;;;;;;5086502;28;20376;-76
2023/05/03 13:12:29;;;;;;;8.48;4.50;;;;;;;;;;5085915;28;20552;-76
2023/05/03 13:14:55;;;;;;;8.45;4.57;;;;;;;;;;5080746;28;20039;-76
2023/05/03 13:17:21;;;;;;;6.38;5.05;;;;;;;;;;5087378;28;20013;-77
2023/05/03 13:19:48;;;;;;;7.40;4.32;;;;;;;;;;5076300;28;20024;-77
2023/05/03 13:22:15;;;;;;;7.82;4.32;;;;;;;;;;5078837;28;20151;-77
2023/05/03 13:24:41;;;;;;;10.07;3.78;;;;;;;;;;5100080;28;20458;-76
2023/05/03 13:27:10;;;;;;;7.90;4.32;;;;;;;;;;5095573;28;20016;-76
2023/05/03 13:29:36;;;;;;;8.35;4.88;;;;;;;;;;5089523;28;20123;-76
2023/05/03 13:32:02;;;;;;;7.80;4.30;;;;;;;;;;5082855;28;20488;-76
2023/05/03 13:34:28;;;;;;;7.00;4.25;;;;;;;;;;5079835;28;20083;-76
2023/05/03 13:36:55;;;;;;;7.63;4.55;;;;;;;;;;5079698;28;20038;-76
2023/05/03 13:39:22;;;;;;;5.85;4.38;;;;;;;;;;5100058;28;20059;-77
2023/05/03 13:41:49;;;;;;;5.47;4.03;;;;;;;;;;5086700;28;20850;-77
2023/05/03 13:44:15;;;;;;;6.00;3.72;;;;;;;;;;5099849;28;20035;-78
2023/05/03 13:46:42;;;;;;;5.45;3.78;;;;;;;;;;5090553;28;20734;-78
2023/05/03 13:49:08;;;;;;;6.07;4.30;;;;;;;;;;5091826;28;20024;-77
2023/05/03 13:51:35;;;;;;;4.75;3.70;;;;;;;;;;5085738;28;20071;-77
2023/05/03 13:54:02;;;;;;;4.95;3.65;;;;;;;;;;5079701;28;20485;-77
2023/05/03 13:56:29;;;;;;;5.70;4.10;;;;;;;;;;5076686;28;20028;-77
2023/05/03 13:58:56;;;;;;;4.78;4.28;;;;;;;;;;5084945;28;20035;-76
2023/05/03 14:01:26;;;;;;;6.32;3.78;;;;;;;;;;5077774;28;20476;-76
2023/05/03 14:03:53;;;;;;;5.93;3.90;;;;;;;;;;5078287;28;20427;-77
2023/05/03 14:06:19;;;;;;;6.45;4.03;;;;;;;;;;5079071;28;20036;-77
2023/05/03 14:08:46;;;;;;;9.60;4.68;;;;;;;;;;5084321;28;20047;-77
2023/05/03 14:11:13;;;;;;;7.50;4.30;;;;;;;;;;5076177;28;20250;-77
2023/05/03 14:13:39;;;;;;;6.03;3.40;;;;;;;;;;5094271;28;20035;-78
2023/05/03 14:16:06;;;;;;;8.05;4.13;;;;;;;;;;5090760;28;20028;-77
2023/05/03 14:18:32;;;;;;;5.70;3.67;;;;;;;;;;5090390;28;20035;-77
2023/05/03 14:20:58;;;;;;;4.90;3.50;;;;;;;;;;5081361;28;20039;-76
2023/05/03 14:23:25;;;;;;;6.68;3.50;;;;;;;;;;5084390;28;20180;-76
2023/05/03 14:25:51;;;;;;;7.40;3.65;;;;;;;;;;5080651;28;20047;-76
2023/05/03 14:28:18;;;;;;;4.30;3.83;;;;;;;;;;5079107;28;20123;-78
2023/05/03 14:30:44;;;;;;;4.70;3.60;;;;;;;;;;5088663;28;20617;-76
2023/05/03 14:33:10;;;;;;;6.13;3.70;;;;;;;;;;5075213;28;20818;-76
2023/05/03 14:35:37;;;;;;;7.15;3.88;;;;;;;;;;5080650;28;20016;-76
2023/05/03 14:38:03;;;;;;;6.95;3.78;;;;;;;;;;5082070;28;20032;-76
2023/05/03 14:40:29;;;;;;;5.18;3.70;;;;;;;;;;5076219;28;20099;-77